Impacts METAR Board
IDs:

KPDX - Portland Intl Arpt, OR, US

Updated at: 1200 UTC 18 Nov 2018
Potential Impact None Slight Moderate High
Time 18/00Z 18/01Z 18/02Z 18/03Z 18/04Z 18/05Z 18/06Z 18/07Z 18/08Z 18/09Z 18/10Z 18/11Z 18/12Z
Temp56 54 53 52 51 50 49 49 49 49 46 40 38
Dewpt29 29 28 28 28 28 29 29 30 29 31 32 32
Altim30.16 30.16 30.16 30.15 30.16 30.16 30.17 30.17 30.17 30.17 30.18 30.18 30.18
VIS10 10 10 10 10 10 10 10 10 10 10 10 10
CIG-- -- -- -- -- -- -- -- -- -- -- -- --
CoverFEWFEWCLRCLRCLRCLRCLRCLRCLRCLRCLRCLRCLR
FltCatVFRVFRVFRVFRVFRVFRVFRVFRVFRVFRVFRVFRVFR
WX--------------------------
WDir809010090100901009090100300280290
WSpd19 19 19 22 18 16 12 14 13 11 4 5 3
WGst-- 25 26 28 26 -- -- -- -- -- -- -- --
Raw hourly METARs
KPDX 172353Z 08019KT 10SM FEW200 13/M02 A3016 RMK AO2 PK WND 07030/2300 SLP211 T01331017 10144 20117 56008
KPDX 180053Z 09019G25KT 10SM FEW200 12/M02 A3016 RMK AO2 PK WND 09026/0024 SLP213 T01221017
KPDX 180153Z 10019G26KT 10SM CLR 12/M02 A3016 RMK AO2 PK WND 10026/0146 SLP212 T01171022
KPDX 180253Z 09022G28KT 10SM CLR 11/M02 A3015 RMK AO2 PK WND 10028/0242 SLP210 T01111022 58001
KPDX 180353Z 10018G26KT 10SM CLR 11/M02 A3016 RMK AO2 PK WND 10026/0349 SLP211 T01061022
KPDX 180453Z 09016KT 10SM CLR 10/M02 A3016 RMK AO2 PK WND 10027/0414 SLP213 T01001022
KPDX 180553Z 10012KT 10SM CLR 09/M02 A3017 RMK AO2 SLP215 T00941017 10133 20094 53004
KPDX 180653Z 09014KT 10SM CLR 09/M02 A3017 RMK AO2 SLP215 T00941017
KPDX 180753Z 09013KT 10SM CLR 09/M01 A3017 RMK AO2 SLP216 T00941011 401440028
KPDX 180853Z 10011KT 10SM CLR 09/M02 A3017 RMK AO2 SLP217 T00941017 53002
KPDX 180953Z 30004KT 10SM CLR 08/M01 A3018 RMK AO2 SLP218 T00781006
KPDX 181053Z 28005KT 10SM CLR 04/00 A3018 RMK AO2 SLP220 T00440000
KPDX 181153Z 29003KT 10SM CLR 03/00 A3018 RMK AO2 SLP217 T00330000 10100 20028 50000



Page loaded:  12:37 UTC  |   04:37 AM Pacific  |   05:37 AM Mountain  |   06:37 AM Central  |   07:37 AM Eastern

 

ADVISORIES

FORECASTS

FORECASTS

OBSERVATIONS

USER TOOLS

ABOUT US